sensor_id;sensor_type;location;lat;lon;timestamp;pressure;altitude;pressure_sealevel;temperature;humidity
55610;BME280;41486;52.502;13.486;2022-12-17T00:00:59;101536.06;;;-2.97;100.00
55610;BME280;41486;52.502;13.486;2022-12-17T00:03:44;101545.44;;;-2.89;100.00
55610;BME280;41486;52.502;13.486;2022-12-17T00:06:30;101545.44;;;-2.92;100.00
55610;BME280;41486;52.502;13.486;2022-12-17T00:09:17;101541.91;;;-2.72;100.00
55610;BME280;41486;52.502;13.486;2022-12-17T00:12:03;101544.41;;;-2.63;100.00
55610;BME280;41486;52.502;13.486;2022-12-17T00:14:49;101548.56;;;-2.45;100.00
55610;BME280;41486;52.502;13.486;2022-12-17T00:17:34;101549.63;;;-2.72;100.00
55610;BME280;41486;52.502;13.486;2022-12-17T00:20:19;101553.06;;;-2.70;100.00
55610;BME280;41486;52.502;13.486;2022-12-17T00:23:04;101560.81;;;-2.78;100.00
55610;BME280;41486;52.502;13.486;2022-12-17T00:25:52;101562.41;;;-2.54;100.00
55610;BME280;41486;52.502;13.486;2022-12-17T00:28:38;101568.44;;;-2.62;100.00
55610;BME280;41486;52.502;13.486;2022-12-17T00:31:25;101564.28;;;-2.77;100.00
55610;BME280;41486;52.502;13.486;2022-12-17T00:34:11;101571.97;;;-2.73;100.00
55610;BME280;41486;52.502;13.486;2022-12-17T00:36:57;101574.50;;;-2.66;100.00
55610;BME280;41486;52.502;13.486;2022-12-17T00:39:44;101569.34;;;-2.68;100.00
55610;BME280;41486;52.502;13.486;2022-12-17T00:42:31;101567.63;;;-2.64;100.00
55610;BME280;41486;52.502;13.486;2022-12-17T00:45:17;101574.56;;;-2.73;100.00
55610;BME280;41486;52.502;13.486;2022-12-17T00:48:03;101583.94;;;-2.65;100.00
55610;BME280;41486;52.502;13.486;2022-12-17T00:50:48;101579.69;;;-2.73;100.00
55610;BME280;41486;52.502;13.486;2022-12-17T00:53:45;101582.28;;;-2.79;100.00
55610;BME280;41486;52.502;13.486;2022-12-17T00:56:31;101590.84;;;-2.75;100.00
55610;BME280;41486;52.502;13.486;2022-12-17T00:59:18;101589.13;;;-2.76;100.00
55610;BME280;41486;52.502;13.486;2022-12-17T01:02:04;101597.69;;;-2.68;100.00
55610;BME280;41486;52.502;13.486;2022-12-17T01:04:49;101598.56;;;-2.69;100.00
55610;BME280;41486;52.502;13.486;2022-12-17T01:07:35;101592.50;;;-2.62;100.00
55610;BME280;41486;52.502;13.486;2022-12-17T01:10:22;101601.75;;;-2.31;100.00
55610;BME280;41486;52.502;13.486;2022-12-17T01:13:11;101600.78;;;-2.19;100.00
55610;BME280;41486;52.502;13.486;2022-12-17T01:16:02;101611.09;;;-2.19;100.00
55610;BME280;41486;52.502;13.486;2022-12-17T01:18:54;101616.50;;;-2.49;100.00
55610;BME280;41486;52.502;13.486;2022-12-17T01:21:41;101608.47;;;-2.10;100.00
55610;BME280;41486;52.502;13.486;2022-12-17T01:24:26;101605.81;;;-2.04;100.00
55610;BME280;41486;52.502;13.486;2022-12-17T01:27:11;101618.00;;;-2.17;100.00
55610;BME280;41486;52.502;13.486;2022-12-17T01:29:57;101614.47;;;-2.08;100.00
55610;BME280;41486;52.502;13.486;2022-12-17T01:32:44;101613.63;;;-2.12;100.00
55610;BME280;41486;52.502;13.486;2022-12-17T01:35:30;101621.34;;;-2.10;100.00
55610;BME280;41486;52.502;13.486;2022-12-17T01:38:17;101621.41;;;-2.13;100.00
55610;BME280;41486;52.502;13.486;2022-12-17T01:41:03;101621.41;;;-2.13;100.00
55610;BME280;41486;52.502;13.486;2022-12-17T01:43:50;101613.69;;;-2.19;100.00
55610;BME280;41486;52.502;13.486;2022-12-17T01:46:38;101619.88;;;-2.42;100.00
55610;BME280;41486;52.502;13.486;2022-12-17T01:49:24;101623.41;;;-2.57;100.00
55610;BME280;41486;52.502;13.486;2022-12-17T01:52:11;101631.13;;;-2.52;100.00
55610;BME280;41486;52.502;13.486;2022-12-17T01:54:57;101621.84;;;-2.84;100.00
55610;BME280;41486;52.502;13.486;2022-12-17T01:57:44;101620.81;;;-2.59;100.00
55610;BME280;41486;52.502;13.486;2022-12-17T02:00:30;101625.88;;;-2.40;100.00
55610;BME280;41486;52.502;13.486;2022-12-17T02:03:16;101629.34;;;-2.46;100.00
55610;BME280;41486;52.502;13.486;2022-12-17T02:06:10;101626.97;;;-2.78;100.00
55610;BME280;41486;52.502;13.486;2022-12-17T02:09:04;101632.69;;;-2.31;100.00
55610;BME280;41486;52.502;13.486;2022-12-17T02:11:56;101627.47;;;-2.24;100.00
55610;BME280;41486;52.502;13.486;2022-12-17T02:15:04;101630.00;;;-2.17;100.00
55610;BME280;41486;52.502;13.486;2022-12-17T02:17:53;101636.25;;;-2.49;100.00
55610;BME280;41486;52.502;13.486;2022-12-17T02:20:44;101629.53;;;-2.77;100.00
55610;BME280;41486;52.502;13.486;2022-12-17T02:23:38;101630.13;;;-2.33;100.00
55610;BME280;41486;52.502;13.486;2022-12-17T02:26:35;101623.25;;;-2.34;100.00
55610;BME280;41486;52.502;13.486;2022-12-17T02:29:21;101627.47;;;-2.24;100.00
55610;BME280;41486;52.502;13.486;2022-12-17T02:32:09;101624.03;;;-2.21;100.00
55610;BME280;41486;52.502;13.486;2022-12-17T02:34:57;101631.84;;;-2.32;100.00
55610;BME280;41486;52.502;13.486;2022-12-17T02:37:45;101635.25;;;-2.30;100.00
55610;BME280;41486;52.502;13.486;2022-12-17T02:40:32;101634.34;;;-2.23;100.00
55610;BME280;41486;52.502;13.486;2022-12-17T02:43:24;101638.66;;;-2.25;100.00
55610;BME280;41486;52.502;13.486;2022-12-17T02:46:11;101649.03;;;-2.31;100.00
55610;BME280;41486;52.502;13.486;2022-12-17T02:48:58;101644.75;;;-2.33;100.00
55610;BME280;41486;52.502;13.486;2022-12-17T02:51:45;101645.53;;;-2.27;100.00
55610;BME280;41486;52.502;13.486;2022-12-17T02:54:31;101648.13;;;-2.25;100.00
55610;BME280;41486;52.502;13.486;2022-12-17T02:57:20;101655.03;;;-2.30;100.00
55610;BME280;41486;52.502;13.486;2022-12-17T03:00:22;101652.47;;;-2.33;100.00
55610;BME280;41486;52.502;13.486;2022-12-17T03:03:07;101659.50;;;-2.62;100.00
55610;BME280;41486;52.502;13.486;2022-12-17T03:05:53;101656.97;;;-2.70;100.00
55610;BME280;41486;52.502;13.486;2022-12-17T03:08:38;101666.44;;;-2.73;100.00
55610;BME280;41486;52.502;13.486;2022-12-17T03:11:19;101662.94;;;-2.58;100.00
55610;BME280;41486;52.502;13.486;2022-12-17T03:14:05;101667.22;;;-2.57;100.00
55610;BME280;41486;52.502;13.486;2022-12-17T03:16:52;101665.38;;;-2.40;100.00
55610;BME280;41486;52.502;13.486;2022-12-17T03:19:37;101668.81;;;-2.38;100.00
55610;BME280;41486;52.502;13.486;2022-12-17T03:22:23;101669.66;;;-2.34;100.00
55610;BME280;41486;52.502;13.486;2022-12-17T03:25:08;101672.22;;;-2.34;100.00
55610;BME280;41486;52.502;13.486;2022-12-17T03:27:53;101681.03;;;-2.80;100.00
55610;BME280;41486;52.502;13.486;2022-12-17T03:30:39;101677.63;;;-2.83;100.00
55610;BME280;41486;52.502;13.486;2022-12-17T03:33:34;101680.22;;;-2.87;100.00
55610;BME280;41486;52.502;13.486;2022-12-17T03:36:19;101679.34;;;-2.87;100.00
55610;BME280;41486;52.502;13.486;2022-12-17T03:39:05;101685.41;;;-2.96;100.00
55610;BME280;41486;52.502;13.486;2022-12-17T03:41:50;101684.59;;;-3.06;100.00
55610;BME280;41486;52.502;13.486;2022-12-17T03:44:36;101691.47;;;-3.14;100.00
55610;BME280;41486;52.502;13.486;2022-12-17T03:47:21;101682.00;;;-3.01;100.00
55610;BME280;41486;52.502;13.486;2022-12-17T03:50:08;101696.50;;;-2.69;100.00
55610;BME280;41486;52.502;13.486;2022-12-17T03:53:06;101696.50;;;-2.75;100.00
55610;BME280;41486;52.502;13.486;2022-12-17T03:55:51;101697.38;;;-2.79;100.00
55610;BME280;41486;52.502;13.486;2022-12-17T03:58:36;101694.69;;;-2.58;100.00
55610;BME280;41486;52.502;13.486;2022-12-17T04:01:22;101702.34;;;-2.42;100.00
55610;BME280;41486;52.502;13.486;2022-12-17T04:04:07;101704.19;;;-2.67;100.00
55610;BME280;41486;52.502;13.486;2022-12-17T04:06:54;101705.88;;;-2.63;100.00
55610;BME280;41486;52.502;13.486;2022-12-17T04:09:39;101718.09;;;-3.10;100.00
55610;BME280;41486;52.502;13.486;2022-12-17T04:12:27;101728.31;;;-2.89;100.00
55610;BME280;41486;52.502;13.486;2022-12-17T04:15:12;101720.53;;;-2.68;100.00
55610;BME280;41486;52.502;13.486;2022-12-17T04:17:58;101726.66;;;-3.24;100.00
55610;BME280;41486;52.502;13.486;2022-12-17T04:20:43;101728.31;;;-2.92;100.00
55610;BME280;41486;52.502;13.486;2022-12-17T04:23:30;101734.31;;;-2.87;100.00
55610;BME280;41486;52.502;13.486;2022-12-17T04:26:15;101735.25;;;-3.19;100.00
55610;BME280;41486;52.502;13.486;2022-12-17T04:29:00;101741.28;;;-3.20;100.00
55610;BME280;41486;52.502;13.486;2022-12-17T04:31:45;101739.47;;;-2.85;100.00
55610;BME280;41486;52.502;13.486;2022-12-17T04:34:42;101737.81;;;-3.22;100.00
55610;BME280;41486;52.502;13.486;2022-12-17T04:37:28;101740.41;;;-3.12;100.00
55610;BME280;41486;52.502;13.486;2022-12-17T04:40:15;101741.19;;;-2.96;100.00
55610;BME280;41486;52.502;13.486;2022-12-17T04:43:04;101744.66;;;-2.96;100.00
55610;BME280;41486;52.502;13.486;2022-12-17T04:45:50;101747.13;;;-2.62;100.00
55610;BME280;41486;52.502;13.486;2022-12-17T04:48:35;101750.53;;;-2.54;100.00
55610;BME280;41486;52.502;13.486;2022-12-17T04:51:21;101744.47;;;-2.45;100.00
55610;BME280;41486;52.502;13.486;2022-12-17T04:54:06;101741.88;;;-2.40;100.00
55610;BME280;41486;52.502;13.486;2022-12-17T04:56:53;101750.53;;;-2.57;100.00
55610;BME280;41486;52.502;13.486;2022-12-17T04:59:40;101738.44;;;-2.42;100.00
55610;BME280;41486;52.502;13.486;2022-12-17T05:02:26;101745.31;;;-2.44;100.00
55610;BME280;41486;52.502;13.486;2022-12-17T05:05:11;101748.78;;;-2.48;100.00
55610;BME280;41486;52.502;13.486;2022-12-17T05:07:57;101748.91;;;-2.79;100.00
55610;BME280;41486;52.502;13.486;2022-12-17T05:10:42;101760.06;;;-2.80;100.00
55610;BME280;41486;52.502;13.486;2022-12-17T05:13:29;101761.84;;;-3.01;100.00
55610;BME280;41486;52.502;13.486;2022-12-17T05:16:16;101762.69;;;-3.10;100.00
55610;BME280;41486;52.502;13.486;2022-12-17T05:19:02;101774.66;;;-2.70;100.00
55610;BME280;41486;52.502;13.486;2022-12-17T05:21:53;101773.84;;;-3.03;100.00
55610;BME280;41486;52.502;13.486;2022-12-17T05:24:40;101766.97;;;-2.93;100.00
55610;BME280;41486;52.502;13.486;2022-12-17T05:27:25;101781.59;;;-3.03;100.00
55610;BME280;41486;52.502;13.486;2022-12-17T05:30:12;101776.41;;;-2.89;100.00
55610;BME280;41486;52.502;13.486;2022-12-17T05:32:59;101785.88;;;-3.02;100.00
55610;BME280;41486;52.502;13.486;2022-12-17T05:35:44;101785.00;;;-3.03;100.00
55610;BME280;41486;52.502;13.486;2022-12-17T05:38:30;101795.31;;;-2.98;100.00
55610;BME280;41486;52.502;13.486;2022-12-17T05:41:15;101788.44;;;-3.08;100.00
55610;BME280;41486;52.502;13.486;2022-12-17T05:44:01;101787.59;;;-3.04;100.00
55610;BME280;41486;52.502;13.486;2022-12-17T05:46:48;101793.63;;;-3.11;100.00
55610;BME280;41486;52.502;13.486;2022-12-17T05:49:36;101798.75;;;-3.07;100.00
55610;BME280;41486;52.502;13.486;2022-12-17T05:52:22;101807.34;;;-3.19;100.00
55610;BME280;41486;52.502;13.486;2022-12-17T05:55:05;101818.47;;;-2.93;100.00
55610;BME280;41486;52.502;13.486;2022-12-17T05:58:00;101814.22;;;-3.02;100.00
55610;BME280;41486;52.502;13.486;2022-12-17T06:00:54;101819.31;;;-2.77;100.00
55610;BME280;41486;52.502;13.486;2022-12-17T06:03:41;101820.19;;;-2.74;100.00
55610;BME280;41486;52.502;13.486;2022-12-17T06:06:27;101830.47;;;-2.63;100.00
55610;BME280;41486;52.502;13.486;2022-12-17T06:09:12;101829.59;;;-2.68;100.00
55610;BME280;41486;52.502;13.486;2022-12-17T06:11:58;101822.75;;;-2.69;100.00
55610;BME280;41486;52.502;13.486;2022-12-17T06:14:44;101820.22;;;-3.03;100.00
55610;BME280;41486;52.502;13.486;2022-12-17T06:17:29;101832.22;;;-2.87;100.00
55610;BME280;41486;52.502;13.486;2022-12-17T06:20:16;101828.78;;;-2.86;100.00
55610;BME280;41486;52.502;13.486;2022-12-17T06:23:04;101824.50;;;-2.87;100.00
55610;BME280;41486;52.502;13.486;2022-12-17T06:25:52;101833.88;;;-2.64;100.00
55610;BME280;41486;52.502;13.486;2022-12-17T06:28:38;101833.91;;;-2.75;100.00
55610;BME280;41486;52.502;13.486;2022-12-17T06:31:23;101841.66;;;-2.82;100.00
55610;BME280;41486;52.502;13.486;2022-12-17T06:34:10;101841.63;;;-2.67;100.00
55610;BME280;41486;52.502;13.486;2022-12-17T06:36:58;101852.78;;;-2.62;100.00
55610;BME280;41486;52.502;13.486;2022-12-17T06:39:43;101860.53;;;-2.71;100.00
55610;BME280;41486;52.502;13.486;2022-12-17T06:42:31;101864.00;;;-2.84;100.00
55610;BME280;41486;52.502;13.486;2022-12-17T06:45:16;101862.28;;;-3.13;100.00
55610;BME280;41486;52.502;13.486;2022-12-17T06:48:03;101856.25;;;-3.43;100.00
55610;BME280;41486;52.502;13.486;2022-12-17T06:50:49;101864.84;;;-3.26;100.00
55610;BME280;41486;52.502;13.486;2022-12-17T06:53:40;101879.41;;;-3.43;100.00
55610;BME280;41486;52.502;13.486;2022-12-17T06:56:25;101880.28;;;-3.27;100.00
55610;BME280;41486;52.502;13.486;2022-12-17T06:59:11;101890.56;;;-3.44;100.00
55610;BME280;41486;52.502;13.486;2022-12-17T07:01:56;101900.00;;;-3.37;100.00
55610;BME280;41486;52.502;13.486;2022-12-17T07:04:43;101909.44;;;-3.47;100.00
55610;BME280;41486;52.502;13.486;2022-12-17T07:07:32;101910.34;;;-3.19;100.00
55610;BME280;41486;52.502;13.486;2022-12-17T07:10:19;101920.63;;;-3.12;100.00
55610;BME280;41486;52.502;13.486;2022-12-17T07:13:05;101924.94;;;-3.11;100.00
55610;BME280;41486;52.502;13.486;2022-12-17T07:15:53;101925.81;;;-3.09;100.00
55610;BME280;41486;52.502;13.486;2022-12-17T07:18:39;101930.94;;;-3.11;100.00
55610;BME280;41486;52.502;13.486;2022-12-17T07:21:24;101935.22;;;-3.04;100.00
55610;BME280;41486;52.502;13.486;2022-12-17T07:24:09;101940.38;;;-3.21;100.00
55610;BME280;41486;52.502;13.486;2022-12-17T07:26:56;101942.97;;;-3.05;100.00
55610;BME280;41486;52.502;13.486;2022-12-17T07:29:41;101941.25;;;-2.91;100.00
55610;BME280;41486;52.502;13.486;2022-12-17T07:32:28;101950.72;;;-2.96;100.00
55610;BME280;41486;52.502;13.486;2022-12-17T07:35:13;101942.97;;;-2.99;100.00
55610;BME280;41486;52.502;13.486;2022-12-17T07:38:00;101944.69;;;-2.92;100.00
55610;BME280;41486;52.502;13.486;2022-12-17T07:40:48;101951.56;;;-2.98;100.00
55610;BME280;41486;52.502;13.486;2022-12-17T07:43:35;101947.19;;;-3.32;100.00
55610;BME280;41486;52.502;13.486;2022-12-17T07:46:20;101954.09;;;-3.34;100.00
55610;BME280;41486;52.502;13.486;2022-12-17T07:49:05;101951.50;;;-3.31;100.00
55610;BME280;41486;52.502;13.486;2022-12-17T07:51:52;101960.13;;;-3.20;100.00
55610;BME280;41486;52.502;13.486;2022-12-17T07:54:37;101962.72;;;-2.98;100.00
55610;BME280;41486;52.502;13.486;2022-12-17T07:57:22;101973.91;;;-2.87;100.00
55610;BME280;41486;52.502;13.486;2022-12-17T08:00:11;101979.06;;;-2.93;100.00
55610;BME280;41486;52.502;13.486;2022-12-17T08:02:57;101984.19;;;-2.90;100.00
55610;BME280;41486;52.502;13.486;2022-12-17T08:05:42;101985.91;;;-2.87;100.00
55610;BME280;41486;52.502;13.486;2022-12-17T08:08:28;101986.78;;;-2.82;100.00
55610;BME280;41486;52.502;13.486;2022-12-17T08:11:13;101996.22;;;-2.78;100.00
55610;BME280;41486;52.502;13.486;2022-12-17T08:13:59;101991.94;;;-2.74;100.00
55610;BME280;41486;52.502;13.486;2022-12-17T08:16:45;101988.50;;;-2.72;100.00
55610;BME280;41486;52.502;13.486;2022-12-17T08:19:31;101994.50;;;-2.79;100.00
55610;BME280;41486;52.502;13.486;2022-12-17T08:22:17;102000.56;;;-2.64;100.00
55610;BME280;41486;52.502;13.486;2022-12-17T08:25:03;102001.34;;;-2.98;100.00
55610;BME280;41486;52.502;13.486;2022-12-17T08:27:54;101997.06;;;-2.88;100.00
55610;BME280;41486;52.502;13.486;2022-12-17T08:31:11;101993.66;;;-2.64;100.00
55610;BME280;41486;52.502;13.486;2022-12-17T08:33:58;101994.53;;;-2.76;100.00
55610;BME280;41486;52.502;13.486;2022-12-17T08:36:43;101989.34;;;-2.83;100.00
55610;BME280;41486;52.502;13.486;2022-12-17T08:39:29;101998.81;;;-2.78;100.00
55610;BME280;41486;52.502;13.486;2022-12-17T08:42:15;102008.28;;;-2.69;100.00
55610;BME280;41486;52.502;13.486;2022-12-17T08:45:01;102003.09;;;-2.60;100.00
55610;BME280;41486;52.502;13.486;2022-12-17T08:47:47;102012.53;;;-2.90;100.00
55610;BME280;41486;52.502;13.486;2022-12-17T08:50:35;102013.44;;;-2.57;100.00
55610;BME280;41486;52.502;13.486;2022-12-17T08:53:21;102014.31;;;-2.61;100.00
55610;BME280;41486;52.502;13.486;2022-12-17T08:56:07;102032.34;;;-2.48;100.00
55610;BME280;41486;52.502;13.486;2022-12-17T08:58:50;102029.75;;;-2.48;100.00
55610;BME280;41486;52.502;13.486;2022-12-17T09:01:37;102030.63;;;-2.56;100.00
55610;BME280;41486;52.502;13.486;2022-12-17T09:04:27;102031.41;;;-2.97;100.00
55610;BME280;41486;52.502;13.486;2022-12-17T09:07:17;102028.03;;;-2.54;100.00
55610;BME280;41486;52.502;13.486;2022-12-17T09:10:16;102041.75;;;-2.66;100.00
55610;BME280;41486;52.502;13.486;2022-12-17T09:13:03;102035.78;;;-2.52;100.00
55610;BME280;41486;52.502;13.486;2022-12-17T09:15:52;102034.06;;;-2.64;100.00
55610;BME280;41486;52.502;13.486;2022-12-17T09:18:49;102043.47;;;-2.82;100.00
55610;BME280;41486;52.502;13.486;2022-12-17T09:21:40;102046.06;;;-2.60;100.00
55610;BME280;41486;52.502;13.486;2022-12-17T09:24:30;102044.34;;;-2.50;100.00
55610;BME280;41486;52.502;13.486;2022-12-17T09:27:15;102042.66;;;-2.39;100.00
55610;BME280;41486;52.502;13.486;2022-12-17T09:30:01;102043.50;;;-2.48;100.00
55610;BME280;41486;52.502;13.486;2022-12-17T09:32:48;102039.22;;;-2.47;100.00
55610;BME280;41486;52.502;13.486;2022-12-17T09:35:35;102040.94;;;-2.46;100.00
55610;BME280;41486;52.502;13.486;2022-12-17T09:38:21;102037.47;;;-2.36;100.00
55610;BME280;41486;52.502;13.486;2022-12-17T09:41:17;102044.34;;;-2.46;100.00
55610;BME280;41486;52.502;13.486;2022-12-17T09:44:17;102045.22;;;-2.47;100.00
55610;BME280;41486;52.502;13.486;2022-12-17T09:47:13;102040.06;;;-2.38;100.00
55610;BME280;41486;52.502;13.486;2022-12-17T09:50:07;102046.94;;;-2.40;100.00
55610;BME280;41486;52.502;13.486;2022-12-17T09:52:58;102052.97;;;-2.33;100.00
55610;BME280;41486;52.502;13.486;2022-12-17T09:56:00;102064.16;;;-2.37;100.00
55610;BME280;41486;52.502;13.486;2022-12-17T09:59:00;102061.53;;;-2.59;100.00
55610;BME280;41486;52.502;13.486;2022-12-17T10:01:47;102075.31;;;-2.49;100.00
55610;BME280;41486;52.502;13.486;2022-12-17T10:04:49;102077.88;;;-2.41;100.00
55610;BME280;41486;52.502;13.486;2022-12-17T10:07:36;102070.00;;;-3.06;100.00
55610;BME280;41486;52.502;13.486;2022-12-17T10:10:25;102080.38;;;-2.86;100.00
55610;BME280;41486;52.502;13.486;2022-12-17T10:13:12;102081.31;;;-2.61;100.00
55610;BME280;41486;52.502;13.486;2022-12-17T10:16:00;102081.22;;;-2.93;100.00
55610;BME280;41486;52.502;13.486;2022-12-17T10:18:48;102074.41;;;-2.71;100.00
55610;BME280;41486;52.502;13.486;2022-12-17T10:21:35;102084.72;;;-2.60;100.00
55610;BME280;41486;52.502;13.486;2022-12-17T10:24:25;102080.41;;;-2.75;100.00
55610;BME280;41486;52.502;13.486;2022-12-17T10:27:17;102088.19;;;-2.52;100.00
55610;BME280;41486;52.502;13.486;2022-12-17T10:30:05;102094.16;;;-2.73;100.00
55610;BME280;41486;52.502;13.486;2022-12-17T10:33:17;102088.16;;;-2.67;100.00
55610;BME280;41486;52.502;13.486;2022-12-17T10:36:15;102092.47;;;-2.60;100.00
55610;BME280;41486;52.502;13.486;2022-12-17T10:39:03;102084.75;;;-2.46;100.00
55610;BME280;41486;52.502;13.486;2022-12-17T10:41:49;102092.47;;;-2.62;100.00
55610;BME280;41486;52.502;13.486;2022-12-17T10:44:36;102085.59;;;-2.69;100.00
55610;BME280;41486;52.502;13.486;2022-12-17T10:47:23;102093.34;;;-2.50;100.00
55610;BME280;41486;52.502;13.486;2022-12-17T10:50:17;102092.50;;;-2.52;100.00
55610;BME280;41486;52.502;13.486;2022-12-17T10:53:37;102092.47;;;-2.43;100.00
55610;BME280;41486;52.502;13.486;2022-12-17T10:56:32;102094.19;;;-2.56;100.00
55610;BME280;41486;52.502;13.486;2022-12-17T10:59:35;102102.81;;;-2.46;100.00
55610;BME280;41486;52.502;13.486;2022-12-17T11:02:29;102096.78;;;-2.53;100.00
55610;BME280;41486;52.502;13.486;2022-12-17T11:05:27;102109.63;;;-2.64;100.00
55610;BME280;41486;52.502;13.486;2022-12-17T11:08:14;102115.66;;;-2.60;100.00
55610;BME280;41486;52.502;13.486;2022-12-17T11:11:13;102119.91;;;-2.86;100.00
55610;BME280;41486;52.502;13.486;2022-12-17T11:14:17;102116.50;;;-2.71;100.00
55610;BME280;41486;52.502;13.486;2022-12-17T11:17:15;102117.41;;;-2.47;100.00
55610;BME280;41486;52.502;13.486;2022-12-17T11:20:22;102117.34;;;-2.73;100.00
55610;BME280;41486;52.502;13.486;2022-12-17T11:23:18;102113.97;;;-2.49;100.00
55610;BME280;41486;52.502;13.486;2022-12-17T11:26:14;102121.59;;;-2.89;100.00
55610;BME280;41486;52.502;13.486;2022-12-17T11:29:09;102119.94;;;-2.70;100.00
55610;BME280;41486;52.502;13.486;2022-12-17T11:32:14;102121.66;;;-2.72;100.00
55610;BME280;41486;52.502;13.486;2022-12-17T11:35:11;102124.19;;;-2.83;100.00
55610;BME280;41486;52.502;13.486;2022-12-17T11:38:14;102126.75;;;-2.86;100.00
55610;BME280;41486;52.502;13.486;2022-12-17T11:41:14;102131.13;;;-2.56;100.00
55610;BME280;41486;52.502;13.486;2022-12-17T11:44:06;102132.91;;;-2.14;100.00
55610;BME280;41486;52.502;13.486;2022-12-17T11:47:04;102132.91;;;-2.14;100.00
55610;BME280;41486;52.502;13.486;2022-12-17T11:50:04;102135.44;;;-2.36;100.00
55610;BME280;41486;52.502;13.486;2022-12-17T11:52:56;102140.66;;;-2.17;100.00
55610;BME280;41486;52.502;13.486;2022-12-17T11:55:59;102134.59;;;-2.41;100.00
55610;BME280;41486;52.502;13.486;2022-12-17T11:58:54;102143.22;;;-2.11;100.00
55610;BME280;41486;52.502;13.486;2022-12-17T12:01:51;102138.91;;;-2.37;100.00
55610;BME280;41486;52.502;13.486;2022-12-17T12:05:02;102136.34;;;-2.22;100.00
55610;BME280;41486;52.502;13.486;2022-12-17T12:07:59;102137.19;;;-2.19;100.00
55610;BME280;41486;52.502;13.486;2022-12-17T12:10:54;102141.50;;;-2.31;100.00
55610;BME280;41486;52.502;13.486;2022-12-17T12:13:49;102141.50;;;-2.29;100.00
55610;BME280;41486;52.502;13.486;2022-12-17T12:16:45;102144.06;;;-2.29;100.00
55610;BME280;41486;52.502;13.486;2022-12-17T12:19:41;102144.94;;;-2.32;100.00
55610;BME280;41486;52.502;13.486;2022-12-17T12:22:36;102146.59;;;-2.48;100.00
55610;BME280;41486;52.502;13.486;2022-12-17T12:25:33;102144.00;;;-2.59;100.00
55610;BME280;41486;52.502;13.486;2022-12-17T12:28:31;102142.38;;;-2.29;100.00
55610;BME280;41486;52.502;13.486;2022-12-17T12:31:28;102151.00;;;-2.05;100.00
55610;BME280;41486;52.502;13.486;2022-12-17T12:34:24;102166.44;;;-2.17;100.00
55610;BME280;41486;52.502;13.486;2022-12-17T12:37:14;102172.47;;;-2.26;100.00
55610;BME280;41486;52.502;13.486;2022-12-17T12:40:05;102169.03;;;-2.14;100.00
55610;BME280;41486;52.502;13.486;2022-12-17T12:42:59;102170.72;;;-2.30;100.00
55610;BME280;41486;52.502;13.486;2022-12-17T12:45:51;102178.47;;;-2.29;100.00
55610;BME280;41486;52.502;13.486;2022-12-17T12:48:47;102187.00;;;-2.42;100.00
55610;BME280;41486;52.502;13.486;2022-12-17T12:51:37;102194.81;;;-2.19;100.00
55610;BME280;41486;52.502;13.486;2022-12-17T12:54:50;102191.28;;;-2.55;100.00
55610;BME280;41486;52.502;13.486;2022-12-17T12:57:41;102188.69;;;-2.57;100.00
55610;BME280;41486;52.502;13.486;2022-12-17T13:00:32;102191.25;;;-2.69;100.00
55610;BME280;41486;52.502;13.486;2022-12-17T13:03:32;102194.66;;;-2.70;100.00
55610;BME280;41486;52.502;13.486;2022-12-17T13:06:38;102195.53;;;-2.70;100.00
55610;BME280;41486;52.502;13.486;2022-12-17T13:09:30;102208.47;;;-2.51;100.00
55610;BME280;41486;52.502;13.486;2022-12-17T13:12:21;102198.16;;;-2.56;100.00
55610;BME280;41486;52.502;13.486;2022-12-17T13:14:55;102201.63;;;-2.47;100.00
55610;BME280;41486;52.502;13.486;2022-12-17T13:17:32;102192.13;;;-2.59;100.00
55610;BME280;41486;52.502;13.486;2022-12-17T13:20:21;102200.72;;;-2.56;100.00
55610;BME280;41486;52.502;13.486;2022-12-17T13:23:03;102194.59;;;-2.84;100.00
55610;BME280;41486;52.502;13.486;2022-12-17T13:25:31;102201.50;;;-2.78;100.00
55610;BME280;41486;52.502;13.486;2022-12-17T13:28:00;102198.00;;;-2.91;100.00
55610;BME280;41486;52.502;13.486;2022-12-17T13:30:33;102200.69;;;-2.65;100.00
55610;BME280;41486;52.502;13.486;2022-12-17T13:33:20;102197.31;;;-2.53;100.00
55610;BME280;41486;52.502;13.486;2022-12-17T13:36:01;102209.38;;;-2.35;100.00
55610;BME280;41486;52.502;13.486;2022-12-17T13:38:41;102212.81;;;-2.38;100.00
55610;BME280;41486;52.502;13.486;2022-12-17T13:41:12;102212.81;;;-2.39;100.00
55610;BME280;41486;52.502;13.486;2022-12-17T13:43:43;102215.41;;;-2.33;100.00
55610;BME280;41486;52.502;13.486;2022-12-17T13:46:20;102219.69;;;-2.36;100.00
55610;BME280;41486;52.502;13.486;2022-12-17T13:48:55;102215.31;;;-2.65;100.00
55610;BME280;41486;52.502;13.486;2022-12-17T13:51:27;102224.81;;;-2.54;100.00
55610;BME280;41486;52.502;13.486;2022-12-17T13:53:58;102229.09;;;-2.56;100.00
55610;BME280;41486;52.502;13.486;2022-12-17T13:56:29;102233.41;;;-2.47;100.00
55610;BME280;41486;52.502;13.486;2022-12-17T13:58:58;102241.88;;;-2.74;100.00
55610;BME280;41486;52.502;13.486;2022-12-17T14:01:43;102245.50;;;-2.26;100.00
55610;BME280;41486;52.502;13.486;2022-12-17T14:04:19;102248.94;;;-2.33;100.00
55610;BME280;41486;52.502;13.486;2022-12-17T14:06:48;102244.63;;;-2.35;100.00
55610;BME280;41486;52.502;13.486;2022-12-17T14:09:20;102254.03;;;-2.48;100.00
55610;BME280;41486;52.502;13.486;2022-12-17T14:11:49;102254.00;;;-2.53;100.00
55610;BME280;41486;52.502;13.486;2022-12-17T14:14:37;102251.47;;;-2.42;100.00
55610;BME280;41486;52.502;13.486;2022-12-17T14:17:15;102256.69;;;-2.16;100.00